createdAt,value
2017-12-14T00:01:20.097Z,5.20
2017-12-14T00:03:49.452Z,5.30
2017-12-14T00:06:18.770Z,5.30
2017-12-14T00:08:48.082Z,5.40
2017-12-14T00:11:17.366Z,5.40
2017-12-14T00:13:46.687Z,5.40
2017-12-14T00:16:16.034Z,5.40
2017-12-14T00:18:45.355Z,5.40
2017-12-14T00:21:14.692Z,5.40
2017-12-14T00:23:43.975Z,5.40
2017-12-14T00:26:13.350Z,5.40
2017-12-14T00:28:43.388Z,5.30
2017-12-14T00:31:12.742Z,5.30
2017-12-14T00:33:42.006Z,5.20
2017-12-14T00:36:11.293Z,5.00
2017-12-14T00:38:40.569Z,4.80
2017-12-14T00:41:09.880Z,4.70
2017-12-14T00:43:45.834Z,4.60
2017-12-14T00:46:15.910Z,4.20
2017-12-14T00:48:45.191Z,4.20
2017-12-14T00:51:14.533Z,4.20
2017-12-14T00:53:43.789Z,4.10
2017-12-14T00:56:13.106Z,4.00
2017-12-14T00:58:42.420Z,3.80
2017-12-14T01:01:12.010Z,3.80
2017-12-14T01:03:41.340Z,3.70
2017-12-14T01:06:10.642Z,3.70
2017-12-14T01:08:41.007Z,3.60
2017-12-14T01:11:10.335Z,3.50
2017-12-14T01:13:39.551Z,3.40
2017-12-14T01:16:08.901Z,3.30
2017-12-14T01:18:38.154Z,3.30
2017-12-14T01:21:07.569Z,3.20
2017-12-14T01:23:37.037Z,3.20
2017-12-14T01:26:06.383Z,3.20
2017-12-14T01:28:35.656Z,3.20
2017-12-14T01:31:04.904Z,3.20
2017-12-14T01:33:34.232Z,3.10
2017-12-14T01:36:03.488Z,3.00
2017-12-14T01:38:32.722Z,3.00
2017-12-14T01:41:01.951Z,2.90
2017-12-14T01:43:31.204Z,2.90
2017-12-14T01:46:00.613Z,2.80
2017-12-14T01:48:30.990Z,3.20
2017-12-14T01:51:00.411Z,3.10
2017-12-14T01:53:29.657Z,3.30
2017-12-14T01:55:59.817Z,3.40
2017-12-14T01:58:29.058Z,3.30
2017-12-14T02:00:58.433Z,3.40
2017-12-14T02:03:27.733Z,3.40
2017-12-14T02:05:57.046Z,3.40
2017-12-14T02:08:26.357Z,3.30
2017-12-14T02:10:56.377Z,3.20
2017-12-14T02:13:25.609Z,3.20
2017-12-14T02:15:54.842Z,3.20
2017-12-14T02:18:24.171Z,3.20
2017-12-14T02:20:53.409Z,3.20
2017-12-14T02:23:22.783Z,3.20
2017-12-14T02:25:52.069Z,3.20
2017-12-14T02:28:21.481Z,3.30
2017-12-14T02:30:51.489Z,3.50
2017-12-14T02:33:20.714Z,3.50
2017-12-14T02:35:50.089Z,3.60
2017-12-14T02:38:19.334Z,3.60
2017-12-14T02:40:48.588Z,3.70
2017-12-14T02:43:17.987Z,3.80
2017-12-14T02:45:47.245Z,3.90
2017-12-14T02:48:16.595Z,4.00
2017-12-14T02:50:45.921Z,4.10
2017-12-14T02:53:15.917Z,4.20
2017-12-14T02:55:45.187Z,4.20
2017-12-14T02:58:14.411Z,4.30
2017-12-14T03:00:43.669Z,4.30
2017-12-14T03:03:13.156Z,4.40
2017-12-14T03:05:42.374Z,4.40
2017-12-14T03:08:11.600Z,4.60
2017-12-14T03:10:40.918Z,4.60
2017-12-14T03:13:10.430Z,4.70
2017-12-14T03:15:39.682Z,4.80
2017-12-14T03:18:08.972Z,4.70
2017-12-14T03:20:38.382Z,4.80
2017-12-14T03:23:07.632Z,4.70
2017-12-14T03:25:36.856Z,4.70
2017-12-14T03:28:06.125Z,4.70
2017-12-14T03:30:35.358Z,4.70
2017-12-14T03:33:04.653Z,4.70
2017-12-14T03:35:34.776Z,4.60
2017-12-14T03:38:04.771Z,4.50
2017-12-14T03:40:34.003Z,4.50
2017-12-14T03:43:04.145Z,4.60
2017-12-14T03:45:35.205Z,4.60
2017-12-14T03:48:04.442Z,4.60
2017-12-14T03:50:33.770Z,4.60
2017-12-14T03:53:03.148Z,4.50
2017-12-14T03:55:32.463Z,4.50
2017-12-14T03:58:02.570Z,4.40
2017-12-14T04:00:31.841Z,4.40
2017-12-14T04:03:01.097Z,4.30
2017-12-14T04:05:30.321Z,4.40
2017-12-14T04:07:59.590Z,4.40
2017-12-14T04:10:28.818Z,4.30
2017-12-14T04:12:58.078Z,4.30
2017-12-14T04:15:27.529Z,4.30
2017-12-14T04:17:56.795Z,4.40
2017-12-14T04:20:26.108Z,4.40
2017-12-14T04:22:55.803Z,4.40
2017-12-14T04:25:26.078Z,4.50
2017-12-14T04:27:55.306Z,4.40
2017-12-14T04:30:24.625Z,4.40
2017-12-14T04:32:54.005Z,4.40
2017-12-14T04:35:23.286Z,4.30
2017-12-14T04:37:52.527Z,4.40
2017-12-14T04:40:21.776Z,4.40
2017-12-14T04:42:51.634Z,4.30
2017-12-14T04:45:21.138Z,4.20
2017-12-14T04:47:50.575Z,4.00
2017-12-14T04:50:19.844Z,4.00
2017-12-14T04:52:49.082Z,3.90
2017-12-14T04:55:18.762Z,3.90
2017-12-14T04:57:48.773Z,3.80
2017-12-14T05:00:18.014Z,3.70
2017-12-14T05:02:47.282Z,3.70
2017-12-14T05:05:16.566Z,3.70
2017-12-14T05:07:45.898Z,3.60
2017-12-14T05:10:15.997Z,3.50
2017-12-14T05:12:45.301Z,3.50
2017-12-14T05:15:14.773Z,3.50
2017-12-14T05:17:44.030Z,3.40
2017-12-14T05:20:13.331Z,3.40
2017-12-14T05:22:42.706Z,3.40
2017-12-14T05:25:11.968Z,3.30
2017-12-14T05:27:41.201Z,3.30
2017-12-14T05:30:10.444Z,3.30
2017-12-14T05:32:39.754Z,3.30
2017-12-14T05:35:09.130Z,3.30
2017-12-14T05:37:38.383Z,3.30
2017-12-14T05:40:07.831Z,3.30
2017-12-14T05:42:37.945Z,3.40
2017-12-14T05:45:07.190Z,3.30
2017-12-14T05:47:36.613Z,3.30
2017-12-14T05:50:07.346Z,3.40
2017-12-14T05:52:36.583Z,3.40
2017-12-14T05:55:05.825Z,3.40
2017-12-14T05:57:35.128Z,3.30
2017-12-14T06:00:04.385Z,3.30
2017-12-14T06:02:33.633Z,3.40
2017-12-14T06:05:02.978Z,3.40
2017-12-14T06:07:32.201Z,3.40
2017-12-14T06:10:01.429Z,3.40
2017-12-14T06:12:30.697Z,3.40
2017-12-14T06:15:00.104Z,3.40
2017-12-14T06:17:29.338Z,3.50
2017-12-14T06:19:58.770Z,3.50
2017-12-14T06:22:28.029Z,3.40
2017-12-14T06:24:57.263Z,3.50
2017-12-14T06:27:26.544Z,3.40
2017-12-14T06:29:55.823Z,3.40
2017-12-14T06:32:25.052Z,3.40
2017-12-14T06:34:54.525Z,3.40
2017-12-14T06:37:23.789Z,3.50
2017-12-14T06:39:53.808Z,3.50
2017-12-14T06:42:23.190Z,3.50
2017-12-14T06:44:52.420Z,3.50
2017-12-14T06:47:21.670Z,3.50
2017-12-14T06:49:50.889Z,3.50
2017-12-14T06:52:20.186Z,3.60
2017-12-14T06:54:49.509Z,3.60
2017-12-14T06:57:19.622Z,3.80
2017-12-14T06:59:48.853Z,3.80
2017-12-14T07:02:18.103Z,3.80
2017-12-14T07:04:47.321Z,3.80
2017-12-14T07:07:16.621Z,4.00
2017-12-14T07:09:45.882Z,4.00
2017-12-14T07:12:15.145Z,4.00
2017-12-14T07:14:44.543Z,4.00
2017-12-14T07:17:14.553Z,3.90
2017-12-14T07:19:43.786Z,3.80
2017-12-14T07:22:13.018Z,3.80
2017-12-14T07:24:42.461Z,3.90
2017-12-14T07:27:11.716Z,3.90
2017-12-14T07:29:41.073Z,3.90
2017-12-14T07:32:10.350Z,3.90
2017-12-14T07:34:39.605Z,3.90
2017-12-14T07:37:08.861Z,3.90
2017-12-14T07:39:38.878Z,3.80
2017-12-14T07:42:08.149Z,3.80
2017-12-14T07:44:37.379Z,3.90
2017-12-14T07:47:25.182Z,4.00
2017-12-14T07:49:54.610Z,4.00
2017-12-14T07:52:23.893Z,4.10
2017-12-14T07:54:53.240Z,4.10
2017-12-14T07:57:22.481Z,4.20
2017-12-14T07:59:51.748Z,4.20
2017-12-14T08:02:21.114Z,4.30
2017-12-14T08:04:50.352Z,4.40
2017-12-14T08:07:21.235Z,4.40
2017-12-14T08:09:51.251Z,4.40
2017-12-14T08:12:20.663Z,4.60
2017-12-14T08:14:49.906Z,4.50
2017-12-14T08:17:19.166Z,4.60
2017-12-14T08:19:48.437Z,4.60
2017-12-14T08:22:17.666Z,4.70
2017-12-14T08:24:47.028Z,4.60
2017-12-14T08:27:16.297Z,4.70
2017-12-14T08:29:45.522Z,4.70
2017-12-14T08:32:14.795Z,4.70
2017-12-14T08:34:44.794Z,4.90
2017-12-14T08:37:14.201Z,4.80
2017-12-14T08:39:43.540Z,4.90
2017-12-14T08:42:13.558Z,5.10
2017-12-14T08:44:43.059Z,5.10
2017-12-14T08:47:12.262Z,5.70
2017-12-14T08:49:41.534Z,6.20
2017-12-14T08:52:10.823Z,6.20
2017-12-14T08:54:40.023Z,6.40
2017-12-14T08:57:09.251Z,6.60
2017-12-14T08:59:39.272Z,6.80
2017-12-14T09:02:08.544Z,6.80
2017-12-14T09:04:37.807Z,6.80
2017-12-14T09:07:07.065Z,6.70
2017-12-14T09:09:37.985Z,6.50
2017-12-14T09:12:07.218Z,6.50
2017-12-14T09:14:37.413Z,6.90
2017-12-14T09:17:07.418Z,9.10
2017-12-14T09:19:36.788Z,9.00
2017-12-14T09:22:06.150Z,11.00
2017-12-14T09:24:36.165Z,13.80
2017-12-14T09:27:05.560Z,13.80
2017-12-14T09:29:34.805Z,13.10
2017-12-14T09:32:04.826Z,10.70
2017-12-14T09:34:34.070Z,10.70
2017-12-14T09:37:03.362Z,9.90
2017-12-14T09:39:32.801Z,9.50
2017-12-14T09:42:02.075Z,9.10
2017-12-14T09:44:32.719Z,7.90
2017-12-14T09:47:01.966Z,7.90
2017-12-14T09:49:31.240Z,7.50
2017-12-14T09:52:00.483Z,7.30
2017-12-14T09:54:29.797Z,7.00
2017-12-14T09:56:59.841Z,6.60
2017-12-14T09:59:29.605Z,6.60
2017-12-14T10:01:58.824Z,6.60
2017-12-14T10:04:28.243Z,6.60
2017-12-14T10:06:57.632Z,6.70
2017-12-14T10:09:26.896Z,7.00
2017-12-14T10:11:56.143Z,7.20
2017-12-14T10:14:26.219Z,7.10
2017-12-14T10:16:55.480Z,7.10
2017-12-14T10:19:24.853Z,7.10
2017-12-14T10:21:54.906Z,7.10
2017-12-14T10:24:24.826Z,7.00
2017-12-14T10:26:54.405Z,7.20
2017-12-14T10:29:24.422Z,7.20
2017-12-14T10:31:53.666Z,7.10
2017-12-14T10:34:22.935Z,7.10
2017-12-14T10:36:52.190Z,7.10
2017-12-14T10:39:21.422Z,6.90
2017-12-14T10:41:50.821Z,6.90
2017-12-14T10:44:20.859Z,6.80
2017-12-14T10:46:50.100Z,6.80
2017-12-14T10:49:19.337Z,6.80
2017-12-14T10:51:48.718Z,6.70
2017-12-14T10:54:18.068Z,6.70
2017-12-14T10:56:47.314Z,6.60
2017-12-14T10:59:16.595Z,6.70
2017-12-14T11:01:45.833Z,6.60
2017-12-14T11:04:15.075Z,6.60
2017-12-14T11:06:44.346Z,6.60
2017-12-14T11:09:13.648Z,6.60
2017-12-14T11:11:42.922Z,6.50
2017-12-14T11:14:12.188Z,6.50
2017-12-14T11:16:41.429Z,6.50
2017-12-14T11:19:10.682Z,6.40
2017-12-14T11:21:39.929Z,6.30
2017-12-14T11:24:09.174Z,6.30
2017-12-14T11:26:38.534Z,6.20
2017-12-14T11:29:07.777Z,6.20
2017-12-14T11:31:37.015Z,6.30
2017-12-14T11:34:06.287Z,6.50
2017-12-14T11:36:35.523Z,6.60
2017-12-14T11:39:04.767Z,6.70
2017-12-14T11:41:34.790Z,6.80
2017-12-14T11:44:04.178Z,6.80
2017-12-14T11:46:34.198Z,6.80
2017-12-14T11:49:03.444Z,6.80
2017-12-14T11:51:32.896Z,6.80
2017-12-14T11:54:02.248Z,6.70
2017-12-14T11:56:31.721Z,6.70
2017-12-14T11:59:01.118Z,6.80
2017-12-14T12:01:30.360Z,6.90
2017-12-14T12:03:59.617Z,6.80
2017-12-14T12:06:29.647Z,6.70
2017-12-14T12:08:59.039Z,6.70
2017-12-14T12:11:29.050Z,6.90
2017-12-14T12:13:58.305Z,6.80
2017-12-14T12:16:27.543Z,6.80
2017-12-14T12:18:57.590Z,6.70
2017-12-14T12:21:26.883Z,6.70
2017-12-14T12:23:57.768Z,6.60
2017-12-14T12:26:27.204Z,6.50
2017-12-14T12:28:56.497Z,6.40
2017-12-14T12:31:25.737Z,6.20
2017-12-14T12:33:55.126Z,6.20
2017-12-14T12:36:24.635Z,6.00
2017-12-14T12:38:54.642Z,5.70
2017-12-14T12:41:24.041Z,5.70
2017-12-14T12:43:53.284Z,5.70
2017-12-14T12:46:22.530Z,5.70
2017-12-14T12:48:51.778Z,5.70
2017-12-14T12:51:21.025Z,5.70
2017-12-14T12:53:50.270Z,5.60
2017-12-14T12:56:19.527Z,5.70
2017-12-14T12:58:48.773Z,5.70
2017-12-14T13:01:18.792Z,5.80
2017-12-14T13:03:48.088Z,5.70
2017-12-14T13:06:17.367Z,5.70
2017-12-14T13:08:46.763Z,5.70
2017-12-14T13:11:16.790Z,5.80
2017-12-14T13:13:46.395Z,5.80
2017-12-14T13:16:15.661Z,5.80
2017-12-14T13:18:44.890Z,5.80
2017-12-14T13:21:19.225Z,5.70
2017-12-14T13:23:48.480Z,5.60
2017-12-14T13:26:17.730Z,5.60
2017-12-14T13:28:46.979Z,5.70
2017-12-14T13:31:16.241Z,5.80
2017-12-14T13:33:45.471Z,5.80
2017-12-14T13:36:14.741Z,5.80
2017-12-14T13:38:43.988Z,5.80
2017-12-14T13:41:13.217Z,5.70
2017-12-14T13:43:42.496Z,5.50
2017-12-14T13:46:11.817Z,5.60
2017-12-14T13:48:41.898Z,5.70
2017-12-14T13:51:11.142Z,5.60
2017-12-14T13:53:40.516Z,5.60
2017-12-14T13:56:09.760Z,5.60
2017-12-14T13:58:39.012Z,5.50
2017-12-14T14:01:09.754Z,5.50
2017-12-14T14:03:39.786Z,5.40
2017-12-14T14:06:09.813Z,5.50
2017-12-14T14:08:39.047Z,5.50
2017-12-14T14:11:08.317Z,5.40
2017-12-14T14:13:38.445Z,5.50
2017-12-14T14:16:07.695Z,5.50
2017-12-14T14:18:36.938Z,5.50
2017-12-14T14:21:06.181Z,5.40
2017-12-14T14:23:35.605Z,5.40
2017-12-14T14:26:05.007Z,5.40
2017-12-14T14:28:34.223Z,5.40
2017-12-14T14:31:03.475Z,5.40
2017-12-14T14:33:32.733Z,5.50
2017-12-14T14:36:02.191Z,5.40
2017-12-14T14:38:31.443Z,5.40
2017-12-14T14:41:00.684Z,5.40
2017-12-14T14:43:29.917Z,5.30
2017-12-14T14:45:59.196Z,5.30
2017-12-14T14:48:29.195Z,5.20
2017-12-14T14:50:59.942Z,5.10
2017-12-14T14:53:29.185Z,5.10
2017-12-14T14:55:58.426Z,5.10
2017-12-14T14:58:27.749Z,5.00
2017-12-14T15:00:57.008Z,5.10
2017-12-14T15:03:27.126Z,5.00
2017-12-14T15:05:57.257Z,5.00
2017-12-14T15:08:26.557Z,5.00
2017-12-14T15:10:56.572Z,5.00
2017-12-14T15:13:25.814Z,5.00
2017-12-14T15:15:55.070Z,5.00
2017-12-14T15:18:25.074Z,5.00
2017-12-14T15:20:55.707Z,5.00
2017-12-14T15:23:25.006Z,5.00
2017-12-14T15:25:54.274Z,5.00
2017-12-14T15:28:23.545Z,5.00
2017-12-14T15:30:52.801Z,5.00
2017-12-14T15:33:22.209Z,5.10
2017-12-14T15:35:51.693Z,5.00
2017-12-14T15:38:20.948Z,5.00
2017-12-14T15:40:50.199Z,5.00
2017-12-14T15:43:19.435Z,4.90
2017-12-14T15:45:49.543Z,4.80
2017-12-14T15:48:18.938Z,4.80
2017-12-14T15:50:48.175Z,4.70
2017-12-14T15:53:17.417Z,4.70
2017-12-14T15:55:46.675Z,4.70
2017-12-14T15:58:16.259Z,4.70
2017-12-14T16:00:45.510Z,4.70
2017-12-14T16:03:14.792Z,4.80
2017-12-14T16:05:44.004Z,4.80
2017-12-14T16:08:13.251Z,4.80
2017-12-14T16:10:42.497Z,4.80
2017-12-14T16:13:11.857Z,4.80
2017-12-14T16:15:41.109Z,4.80
2017-12-14T16:18:10.388Z,4.90
2017-12-14T16:20:39.619Z,4.90
2017-12-14T16:23:08.869Z,4.90
2017-12-14T16:25:38.961Z,5.00
2017-12-14T16:28:08.945Z,5.00
2017-12-14T16:30:38.207Z,5.10
2017-12-14T16:33:07.432Z,5.10
2017-12-14T16:35:36.817Z,5.20
2017-12-14T16:38:06.065Z,5.20
2017-12-14T16:40:35.428Z,5.20
2017-12-14T16:43:05.543Z,5.20
2017-12-14T16:45:35.633Z,5.10
2017-12-14T16:48:04.911Z,5.10
2017-12-14T16:50:34.266Z,5.10
2017-12-14T16:53:05.091Z,4.90
2017-12-14T16:55:34.362Z,4.90
2017-12-14T16:58:04.248Z,4.90
2017-12-14T17:00:33.617Z,4.80
2017-12-14T17:03:02.852Z,4.70
2017-12-14T17:05:32.256Z,4.60
2017-12-14T17:08:02.249Z,4.30
2017-12-14T17:10:31.591Z,4.40
2017-12-14T17:13:00.800Z,4.30
2017-12-14T17:15:30.271Z,4.20
2017-12-14T17:18:00.539Z,4.10
2017-12-14T17:20:29.746Z,4.10
2017-12-14T17:22:59.769Z,3.90
2017-12-14T17:25:29.805Z,3.80
2017-12-14T17:27:59.844Z,3.70
2017-12-14T17:30:30.050Z,3.70
2017-12-14T17:32:59.402Z,3.70
2017-12-14T17:35:28.660Z,3.70
2017-12-14T17:37:58.680Z,3.50
2017-12-14T17:40:28.030Z,3.50
2017-12-14T17:42:57.265Z,3.40
2017-12-14T17:45:26.699Z,3.30
2017-12-14T17:47:55.928Z,3.30
2017-12-14T17:50:25.160Z,3.30
2017-12-14T17:52:54.459Z,3.20
2017-12-14T17:55:23.717Z,3.10
2017-12-14T17:57:52.966Z,3.10
2017-12-14T18:00:23.407Z,3.00
2017-12-14T18:02:53.405Z,2.90
2017-12-14T18:05:23.431Z,2.80
2017-12-14T18:07:52.855Z,2.80
2017-12-14T18:10:22.878Z,2.90
2017-12-14T18:12:52.238Z,2.90
2017-12-14T18:15:21.528Z,2.90
2017-12-14T18:17:50.885Z,2.90
2017-12-14T18:20:20.164Z,3.00
2017-12-14T18:22:49.410Z,3.20
2017-12-14T18:25:19.089Z,3.30
2017-12-14T18:27:48.375Z,3.40
2017-12-14T18:30:17.622Z,3.50
2017-12-14T18:32:47.649Z,3.40
2017-12-14T18:35:16.866Z,3.40
2017-12-14T18:37:47.698Z,3.60
2017-12-14T18:40:17.089Z,3.70
2017-12-14T18:42:47.101Z,3.90
2017-12-14T18:45:16.436Z,3.80
2017-12-14T18:47:46.529Z,4.00
2017-12-14T18:50:15.821Z,4.00
2017-12-14T18:52:45.077Z,4.00
2017-12-14T18:55:14.318Z,3.90
2017-12-14T18:57:43.553Z,4.00
2017-12-14T19:00:13.597Z,3.80
2017-12-14T19:02:42.829Z,3.70
2017-12-14T19:05:12.096Z,3.70
2017-12-14T19:07:41.330Z,3.70
2017-12-14T19:10:10.645Z,3.60
2017-12-14T19:12:39.971Z,3.60
2017-12-14T19:15:09.980Z,3.70
2017-12-14T19:17:39.278Z,3.70
2017-12-14T19:20:08.514Z,3.80
2017-12-14T19:22:38.586Z,3.80
2017-12-14T19:25:07.814Z,3.70
2017-12-14T19:27:37.200Z,3.80
2017-12-14T19:30:08.922Z,3.90
2017-12-14T19:32:38.221Z,3.90
2017-12-14T19:35:08.219Z,4.00
2017-12-14T19:37:37.467Z,4.00
2017-12-14T19:40:06.723Z,4.10
2017-12-14T19:42:35.968Z,4.10
2017-12-14T19:45:05.257Z,4.20
2017-12-14T19:47:34.563Z,4.20
2017-12-14T19:50:03.822Z,4.20
2017-12-14T19:52:33.062Z,4.20
2017-12-14T19:55:02.550Z,4.30
2017-12-14T19:57:32.555Z,4.20
2017-12-14T20:00:01.877Z,4.20
2017-12-14T20:02:31.072Z,4.30
2017-12-14T20:05:01.097Z,4.30
2017-12-14T20:07:30.364Z,4.30
2017-12-14T20:09:59.800Z,4.30
2017-12-14T20:12:29.807Z,4.40
2017-12-14T20:14:59.163Z,4.30
2017-12-14T20:17:28.407Z,4.40
2017-12-14T20:19:57.646Z,4.40
2017-12-14T20:22:27.103Z,4.40
2017-12-14T20:24:57.125Z,4.30
2017-12-14T20:27:27.189Z,4.30
2017-12-14T20:29:56.430Z,4.30
2017-12-14T20:32:25.747Z,4.40
2017-12-14T20:34:55.759Z,4.40
2017-12-14T20:37:25.009Z,4.40
2017-12-14T20:39:54.256Z,4.50
2017-12-14T20:42:23.499Z,4.50
2017-12-14T20:44:52.753Z,4.50
2017-12-14T20:47:22.008Z,4.50
2017-12-14T20:49:51.241Z,4.60
2017-12-14T20:52:20.567Z,4.50
2017-12-14T20:54:50.699Z,4.50
2017-12-14T20:57:20.809Z,4.60
2017-12-14T20:59:50.038Z,4.60
2017-12-14T21:02:19.281Z,4.60
2017-12-14T21:04:48.646Z,4.60
2017-12-14T21:07:17.899Z,4.70
2017-12-14T21:09:47.906Z,4.70
2017-12-14T21:12:17.137Z,4.70
2017-12-14T21:14:46.427Z,4.70
2017-12-14T21:17:15.750Z,4.80
2017-12-14T21:19:46.477Z,4.70
2017-12-14T21:22:15.890Z,4.70
2017-12-14T21:24:45.979Z,4.70
2017-12-14T21:27:15.292Z,4.70
2017-12-14T21:29:44.577Z,4.70
2017-12-14T21:32:13.814Z,4.80
2017-12-14T21:34:43.052Z,4.80
2017-12-14T21:37:12.324Z,4.80
2017-12-14T21:39:42.357Z,4.90
2017-12-14T21:42:11.577Z,4.80
2017-12-14T21:44:40.846Z,4.90
2017-12-14T21:47:10.253Z,4.90
2017-12-14T21:49:39.502Z,4.80
2017-12-14T21:52:08.755Z,4.90
2017-12-14T21:54:38.014Z,4.90
2017-12-14T21:57:07.317Z,4.90
2017-12-14T21:59:36.625Z,4.90
2017-12-14T22:02:06.646Z,4.70
2017-12-14T22:04:35.970Z,4.80
2017-12-14T22:07:05.182Z,4.80
2017-12-14T22:09:35.033Z,4.90
2017-12-14T22:12:04.283Z,4.90
2017-12-14T22:14:33.512Z,5.00
2017-12-14T22:17:02.766Z,4.90
2017-12-14T22:19:31.997Z,4.90
2017-12-14T22:22:01.355Z,5.00
2017-12-14T22:24:30.666Z,4.80
2017-12-14T22:26:59.894Z,4.90
2017-12-14T22:29:29.269Z,4.90
2017-12-14T22:31:58.604Z,4.90
2017-12-14T22:34:27.861Z,5.00
2017-12-14T22:36:57.195Z,4.90
2017-12-14T22:39:26.409Z,4.90
2017-12-14T22:41:55.645Z,4.90
2017-12-14T22:44:24.980Z,4.90
2017-12-14T22:46:54.394Z,4.80
2017-12-14T22:49:23.609Z,4.80
2017-12-14T22:51:52.870Z,4.80
2017-12-14T22:54:22.113Z,4.80
2017-12-14T22:56:51.385Z,4.80
2017-12-14T22:59:21.381Z,4.80
2017-12-14T23:01:50.633Z,4.80
2017-12-14T23:04:19.859Z,4.90
2017-12-14T23:06:49.145Z,4.90
2017-12-14T23:09:18.425Z,4.90
2017-12-14T23:11:47.794Z,4.90
2017-12-14T23:14:17.101Z,4.90
2017-12-14T23:16:47.885Z,4.80
2017-12-14T23:19:17.132Z,4.80
2017-12-14T23:21:46.359Z,4.90
2017-12-14T23:24:16.369Z,4.80
2017-12-14T23:26:45.713Z,4.90
2017-12-14T23:29:14.960Z,4.80
2017-12-14T23:31:44.183Z,4.90
2017-12-14T23:34:13.430Z,4.90
2017-12-14T23:36:42.652Z,4.90
2017-12-14T23:39:11.983Z,4.90
2017-12-14T23:41:41.205Z,4.90
2017-12-14T23:44:10.441Z,4.80
2017-12-14T23:46:39.700Z,4.80
2017-12-14T23:49:08.954Z,4.80
2017-12-14T23:51:38.641Z,4.70
2017-12-14T23:54:07.925Z,4.60
2017-12-14T23:56:37.178Z,4.60
2017-12-14T23:59:06.421Z,4.50
